Terminal Aerodrome Forecast
Issued by NWS

Current Version | Previous Version | Text Only | Print | Product List | Glossary On
Versions: 1 2 3 4 5 6 7 8 9 10 11 12 13 14 15 16 17 18 19 20 21 22 23 24 25 26 27 28 29 30 31 32 33 34 35 36 37 38 39 40 41 42
000
FTUS46 KOTX 290027 AAA
TAFCOE
TAF AMD
KCOE 290027Z 2900/2924 21007KT P6SM -TSRA BKN050CB BKN120
     FM290200 21007KT P6SM -SHRA BKN050 BKN120
     FM290300 15005KT P6SM SCT060 SCT200
     FM290800 14005KT P6SM FEW080
     FM291500 18005KT P6SM SCT150 BKN200=

USA.gov is the U.S. government's official web portal to all federal, state and local government web resources and services.